sensor_id;sensor_type;location;lat;lon;timestamp;P1;durP1;ratioP1;P2;durP2;ratioP2
26750;SDS011;14345;48.272;25.926;2023-06-24T00:00:58;5.03;;;2.25;;
26750;SDS011;14345;48.272;25.926;2023-06-24T00:03:24;4.68;;;3.03;;
26750;SDS011;14345;48.272;25.926;2023-06-24T00:05:50;2.85;;;2.20;;
26750;SDS011;14345;48.272;25.926;2023-06-24T00:08:16;4.97;;;2.58;;
26750;SDS011;14345;48.272;25.926;2023-06-24T00:10:49;6.60;;;3.10;;
26750;SDS011;14345;48.272;25.926;2023-06-24T00:13:15;3.30;;;2.28;;
26750;SDS011;14345;48.272;25.926;2023-06-24T00:15:42;6.15;;;2.90;;
26750;SDS011;14345;48.272;25.926;2023-06-24T00:18:11;5.05;;;2.58;;
26750;SDS011;14345;48.272;25.926;2023-06-24T00:20:37;4.93;;;2.85;;
26750;SDS011;14345;48.272;25.926;2023-06-24T00:23:04;3.72;;;2.83;;
26750;SDS011;14345;48.272;25.926;2023-06-24T00:25:30;5.70;;;2.72;;
26750;SDS011;14345;48.272;25.926;2023-06-24T00:27:56;4.32;;;2.28;;
26750;SDS011;14345;48.272;25.926;2023-06-24T00:30:22;3.90;;;2.20;;
26750;SDS011;14345;48.272;25.926;2023-06-24T00:32:48;4.45;;;2.17;;
26750;SDS011;14345;48.272;25.926;2023-06-24T00:35:14;4.47;;;2.50;;
26750;SDS011;14345;48.272;25.926;2023-06-24T00:37:40;3.83;;;2.42;;
26750;SDS011;14345;48.272;25.926;2023-06-24T00:40:11;3.60;;;1.98;;
26750;SDS011;14345;48.272;25.926;2023-06-24T00:42:40;4.20;;;1.98;;
26750;SDS011;14345;48.272;25.926;2023-06-24T00:45:07;3.92;;;2.58;;
26750;SDS011;14345;48.272;25.926;2023-06-24T00:47:33;3.60;;;2.47;;
26750;SDS011;14345;48.272;25.926;2023-06-24T00:49:59;5.03;;;2.65;;
26750;SDS011;14345;48.272;25.926;2023-06-24T00:52:25;2.97;;;2.40;;
26750;SDS011;14345;48.272;25.926;2023-06-24T00:54:51;3.35;;;2.53;;
26750;SDS011;14345;48.272;25.926;2023-06-24T00:57:17;4.75;;;3.00;;
26750;SDS011;14345;48.272;25.926;2023-06-24T00:59:48;3.92;;;2.92;;
26750;SDS011;14345;48.272;25.926;2023-06-24T01:02:18;4.82;;;3.10;;
26750;SDS011;14345;48.272;25.926;2023-06-24T01:04:44;5.07;;;3.15;;
26750;SDS011;14345;48.272;25.926;2023-06-24T01:07:10;4.55;;;3.70;;
26750;SDS011;14345;48.272;25.926;2023-06-24T01:09:36;5.85;;;4.00;;
26750;SDS011;14345;48.272;25.926;2023-06-24T01:12:02;5.15;;;3.85;;
26750;SDS011;14345;48.272;25.926;2023-06-24T01:14:28;7.90;;;4.75;;
26750;SDS011;14345;48.272;25.926;2023-06-24T01:17:12;9.40;;;4.47;;
26750;SDS011;14345;48.272;25.926;2023-06-24T01:30:34;6.45;;;4.47;;
26750;SDS011;14345;48.272;25.926;2023-06-24T01:33:03;7.43;;;4.30;;
26750;SDS011;14345;48.272;25.926;2023-06-24T01:35:31;8.98;;;5.28;;
26750;SDS011;14345;48.272;25.926;2023-06-24T01:37:59;6.32;;;4.78;;
26750;SDS011;14345;48.272;25.926;2023-06-24T01:42:53;7.57;;;6.15;;
26750;SDS011;14345;48.272;25.926;2023-06-24T01:45:25;13.38;;;5.90;;
26750;SDS011;14345;48.272;25.926;2023-06-24T01:47:54;8.82;;;5.05;;
26750;SDS011;14345;48.272;25.926;2023-06-24T01:50:22;6.35;;;4.75;;
26750;SDS011;14345;48.272;25.926;2023-06-24T01:52:49;6.25;;;4.45;;
26750;SDS011;14345;48.272;25.926;2023-06-24T01:55:17;6.63;;;4.10;;
26750;SDS011;14345;48.272;25.926;2023-06-24T01:57:44;5.32;;;4.18;;
26750;SDS011;14345;48.272;25.926;2023-06-24T02:00:12;6.75;;;4.40;;
26750;SDS011;14345;48.272;25.926;2023-06-24T02:02:38;7.43;;;4.68;;
26750;SDS011;14345;48.272;25.926;2023-06-24T02:05:05;7.72;;;4.38;;
26750;SDS011;14345;48.272;25.926;2023-06-24T02:07:32;5.38;;;4.32;;
26750;SDS011;14345;48.272;25.926;2023-06-24T02:09:59;6.00;;;4.07;;
26750;SDS011;14345;48.272;25.926;2023-06-24T02:12:25;9.10;;;5.07;;
26750;SDS011;14345;48.272;25.926;2023-06-24T02:14:52;8.98;;;5.28;;
26750;SDS011;14345;48.272;25.926;2023-06-24T02:17:19;6.18;;;4.47;;
26750;SDS011;14345;48.272;25.926;2023-06-24T02:19:46;7.10;;;3.90;;
26750;SDS011;14345;48.272;25.926;2023-06-24T02:22:13;5.57;;;4.07;;
26750;SDS011;14345;48.272;25.926;2023-06-24T02:24:39;5.20;;;3.55;;
26750;SDS011;14345;48.272;25.926;2023-06-24T02:27:06;5.53;;;3.63;;
26750;SDS011;14345;48.272;25.926;2023-06-24T02:29:32;7.60;;;3.95;;
26750;SDS011;14345;48.272;25.926;2023-06-24T02:32:01;4.75;;;3.65;;
26750;SDS011;14345;48.272;25.926;2023-06-24T02:34:27;7.18;;;4.18;;
26750;SDS011;14345;48.272;25.926;2023-06-24T02:36:54;6.32;;;4.45;;
26750;SDS011;14345;48.272;25.926;2023-06-24T02:39:19;5.47;;;3.83;;
26750;SDS011;14345;48.272;25.926;2023-06-24T02:41:47;5.90;;;3.72;;
26750;SDS011;14345;48.272;25.926;2023-06-24T02:44:14;6.28;;;3.53;;
26750;SDS011;14345;48.272;25.926;2023-06-24T02:46:40;5.07;;;3.60;;
26750;SDS011;14345;48.272;25.926;2023-06-24T02:49:08;7.10;;;3.35;;
26750;SDS011;14345;48.272;25.926;2023-06-24T02:51:34;5.35;;;3.10;;
26750;SDS011;14345;48.272;25.926;2023-06-24T02:54:00;4.57;;;3.25;;
26750;SDS011;14345;48.272;25.926;2023-06-24T02:56:27;4.68;;;3.10;;
26750;SDS011;14345;48.272;25.926;2023-06-24T02:58:53;4.45;;;3.03;;
26750;SDS011;14345;48.272;25.926;2023-06-24T03:01:20;4.40;;;3.25;;
26750;SDS011;14345;48.272;25.926;2023-06-24T03:03:51;6.45;;;3.70;;
26750;SDS011;14345;48.272;25.926;2023-06-24T03:06:18;5.60;;;3.60;;
26750;SDS011;14345;48.272;25.926;2023-06-24T03:08:45;5.15;;;3.67;;
26750;SDS011;14345;48.272;25.926;2023-06-24T03:11:14;5.25;;;3.72;;
26750;SDS011;14345;48.272;25.926;2023-06-24T03:13:41;9.32;;;4.10;;
26750;SDS011;14345;48.272;25.926;2023-06-24T03:16:07;6.70;;;4.43;;
26750;SDS011;14345;48.272;25.926;2023-06-24T03:18:40;7.10;;;4.28;;
26750;SDS011;14345;48.272;25.926;2023-06-24T03:21:07;6.28;;;3.67;;
26750;SDS011;14345;48.272;25.926;2023-06-24T03:23:33;7.05;;;3.28;;
26750;SDS011;14345;48.272;25.926;2023-06-24T03:25:59;8.23;;;3.78;;
26750;SDS011;14345;48.272;25.926;2023-06-24T03:28:25;5.00;;;3.50;;
26750;SDS011;14345;48.272;25.926;2023-06-24T03:30:51;4.15;;;2.80;;
26750;SDS011;14345;48.272;25.926;2023-06-24T03:33:17;6.25;;;3.92;;
26750;SDS011;14345;48.272;25.926;2023-06-24T03:35:43;6.72;;;3.55;;
26750;SDS011;14345;48.272;25.926;2023-06-24T03:38:09;5.85;;;3.30;;
26750;SDS011;14345;48.272;25.926;2023-06-24T03:40:36;9.95;;;3.42;;
26750;SDS011;14345;48.272;25.926;2023-06-24T03:43:02;3.60;;;2.47;;
26750;SDS011;14345;48.272;25.926;2023-06-24T03:45:28;4.22;;;2.83;;
26750;SDS011;14345;48.272;25.926;2023-06-24T03:47:54;7.82;;;3.40;;
26750;SDS011;14345;48.272;25.926;2023-06-24T03:50:20;8.40;;;3.53;;
26750;SDS011;14345;48.272;25.926;2023-06-24T03:52:46;6.65;;;3.53;;
26750;SDS011;14345;48.272;25.926;2023-06-24T03:55:12;8.95;;;5.40;;
26750;SDS011;14345;48.272;25.926;2023-06-24T03:57:38;10.63;;;5.40;;
26750;SDS011;14345;48.272;25.926;2023-06-24T04:00:04;12.23;;;6.93;;
26750;SDS011;14345;48.272;25.926;2023-06-24T04:02:39;9.00;;;6.32;;
26750;SDS011;14345;48.272;25.926;2023-06-24T04:05:07;9.98;;;5.53;;
26750;SDS011;14345;48.272;25.926;2023-06-24T04:07:33;7.82;;;6.10;;
26750;SDS011;14345;48.272;25.926;2023-06-24T04:10:00;7.35;;;5.78;;
26750;SDS011;14345;48.272;25.926;2023-06-24T04:12:26;9.88;;;6.47;;
26750;SDS011;14345;48.272;25.926;2023-06-24T04:14:52;9.15;;;5.97;;
26750;SDS011;14345;48.272;25.926;2023-06-24T04:17:18;11.05;;;5.60;;
26750;SDS011;14345;48.272;25.926;2023-06-24T04:19:44;8.60;;;4.60;;
26750;SDS011;14345;48.272;25.926;2023-06-24T04:22:10;6.82;;;4.45;;
26750;SDS011;14345;48.272;25.926;2023-06-24T04:24:36;5.60;;;3.67;;
26750;SDS011;14345;48.272;25.926;2023-06-24T04:27:02;6.43;;;3.58;;
26750;SDS011;14345;48.272;25.926;2023-06-24T04:29:28;8.30;;;4.35;;
26750;SDS011;14345;48.272;25.926;2023-06-24T04:31:54;5.43;;;3.65;;
26750;SDS011;14345;48.272;25.926;2023-06-24T04:34:20;5.53;;;3.33;;
26750;SDS011;14345;48.272;25.926;2023-06-24T04:36:46;5.50;;;3.17;;
26750;SDS011;14345;48.272;25.926;2023-06-24T04:39:12;5.25;;;3.50;;
26750;SDS011;14345;48.272;25.926;2023-06-24T04:41:38;5.13;;;2.92;;
26750;SDS011;14345;48.272;25.926;2023-06-24T04:44:04;5.13;;;3.22;;
26750;SDS011;14345;48.272;25.926;2023-06-24T04:46:30;5.70;;;3.10;;
26750;SDS011;14345;48.272;25.926;2023-06-24T04:48:57;5.00;;;3.10;;
26750;SDS011;14345;48.272;25.926;2023-06-24T04:51:23;5.95;;;3.85;;
26750;SDS011;14345;48.272;25.926;2023-06-24T04:53:49;6.60;;;3.50;;
26750;SDS011;14345;48.272;25.926;2023-06-24T04:56:15;5.22;;;3.13;;
26750;SDS011;14345;48.272;25.926;2023-06-24T04:58:41;5.78;;;2.90;;
26750;SDS011;14345;48.272;25.926;2023-06-24T05:01:07;5.05;;;3.40;;
26750;SDS011;14345;48.272;25.926;2023-06-24T05:03:34;4.65;;;2.65;;
26750;SDS011;14345;48.272;25.926;2023-06-24T05:06:00;5.90;;;2.80;;
26750;SDS011;14345;48.272;25.926;2023-06-24T05:08:26;5.25;;;2.80;;
26750;SDS011;14345;48.272;25.926;2023-06-24T05:10:51;6.15;;;2.75;;
26750;SDS011;14345;48.272;25.926;2023-06-24T05:13:17;5.75;;;2.55;;
26750;SDS011;14345;48.272;25.926;2023-06-24T05:15:43;5.00;;;2.40;;
26750;SDS011;14345;48.272;25.926;2023-06-24T05:18:10;3.08;;;2.17;;
26750;SDS011;14345;48.272;25.926;2023-06-24T05:20:36;5.57;;;2.50;;
26750;SDS011;14345;48.272;25.926;2023-06-24T05:23:02;6.68;;;2.75;;
26750;SDS011;14345;48.272;25.926;2023-06-24T05:25:27;8.13;;;3.20;;
26750;SDS011;14345;48.272;25.926;2023-06-24T05:27:53;7.20;;;2.60;;
26750;SDS011;14345;48.272;25.926;2023-06-24T05:30:19;2.83;;;2.10;;
26750;SDS011;14345;48.272;25.926;2023-06-24T05:32:45;4.28;;;3.05;;
26750;SDS011;14345;48.272;25.926;2023-06-24T05:35:11;3.90;;;2.72;;
26750;SDS011;14345;48.272;25.926;2023-06-24T05:37:38;10.15;;;3.70;;
26750;SDS011;14345;48.272;25.926;2023-06-24T05:40:04;8.35;;;3.63;;
26750;SDS011;14345;48.272;25.926;2023-06-24T05:42:31;12.10;;;3.20;;
26750;SDS011;14345;48.272;25.926;2023-06-24T05:44:58;5.18;;;3.05;;
26750;SDS011;14345;48.272;25.926;2023-06-24T05:47:24;4.10;;;3.08;;
26750;SDS011;14345;48.272;25.926;2023-06-24T05:49:50;9.30;;;3.58;;
26750;SDS011;14345;48.272;25.926;2023-06-24T05:52:16;6.28;;;3.50;;
26750;SDS011;14345;48.272;25.926;2023-06-24T05:54:42;8.73;;;3.55;;
26750;SDS011;14345;48.272;25.926;2023-06-24T05:57:08;7.80;;;3.08;;
26750;SDS011;14345;48.272;25.926;2023-06-24T05:59:35;7.22;;;3.70;;
26750;SDS011;14345;48.272;25.926;2023-06-24T06:02:01;5.65;;;3.40;;
26750;SDS011;14345;48.272;25.926;2023-06-24T06:04:28;6.30;;;4.00;;
26750;SDS011;14345;48.272;25.926;2023-06-24T06:06:54;10.77;;;3.88;;
26750;SDS011;14345;48.272;25.926;2023-06-24T06:09:20;7.85;;;3.65;;
26750;SDS011;14345;48.272;25.926;2023-06-24T06:11:46;5.85;;;3.70;;
26750;SDS011;14345;48.272;25.926;2023-06-24T06:14:13;8.25;;;4.00;;
26750;SDS011;14345;48.272;25.926;2023-06-24T06:16:39;8.73;;;3.85;;
26750;SDS011;14345;48.272;25.926;2023-06-24T06:19:05;6.25;;;3.92;;
26750;SDS011;14345;48.272;25.926;2023-06-24T06:21:31;7.50;;;4.47;;
26750;SDS011;14345;48.272;25.926;2023-06-24T06:23:57;10.48;;;5.53;;
26750;SDS011;14345;48.272;25.926;2023-06-24T06:26:23;7.88;;;4.32;;
26750;SDS011;14345;48.272;25.926;2023-06-24T06:28:50;8.23;;;4.25;;
26750;SDS011;14345;48.272;25.926;2023-06-24T06:31:18;7.13;;;4.07;;
26750;SDS011;14345;48.272;25.926;2023-06-24T06:33:44;6.45;;;4.28;;
26750;SDS011;14345;48.272;25.926;2023-06-24T06:36:10;7.97;;;3.78;;
26750;SDS011;14345;48.272;25.926;2023-06-24T06:38:36;9.20;;;3.53;;
26750;SDS011;14345;48.272;25.926;2023-06-24T06:41:02;4.40;;;3.22;;
26750;SDS011;14345;48.272;25.926;2023-06-24T06:43:28;6.95;;;3.90;;
26750;SDS011;14345;48.272;25.926;2023-06-24T06:45:54;8.40;;;3.90;;
26750;SDS011;14345;48.272;25.926;2023-06-24T06:48:21;5.97;;;3.05;;
26750;SDS011;14345;48.272;25.926;2023-06-24T06:50:47;6.13;;;3.55;;
26750;SDS011;14345;48.272;25.926;2023-06-24T06:53:13;6.75;;;3.38;;
26750;SDS011;14345;48.272;25.926;2023-06-24T06:55:39;4.95;;;3.70;;
26750;SDS011;14345;48.272;25.926;2023-06-24T06:58:05;7.10;;;3.50;;
26750;SDS011;14345;48.272;25.926;2023-06-24T07:00:31;7.15;;;3.72;;
26750;SDS011;14345;48.272;25.926;2023-06-24T07:02:57;5.95;;;3.53;;
26750;SDS011;14345;48.272;25.926;2023-06-24T07:05:23;10.90;;;3.65;;
26750;SDS011;14345;48.272;25.926;2023-06-24T07:07:49;6.22;;;3.53;;
26750;SDS011;14345;48.272;25.926;2023-06-24T07:10:15;4.88;;;3.42;;
26750;SDS011;14345;48.272;25.926;2023-06-24T07:12:42;7.88;;;4.20;;
26750;SDS011;14345;48.272;25.926;2023-06-24T07:15:08;9.70;;;4.50;;
26750;SDS011;14345;48.272;25.926;2023-06-24T07:17:35;9.13;;;3.78;;
26750;SDS011;14345;48.272;25.926;2023-06-24T07:20:01;7.32;;;3.92;;
26750;SDS011;14345;48.272;25.926;2023-06-24T07:22:27;8.55;;;3.58;;
26750;SDS011;14345;48.272;25.926;2023-06-24T07:24:55;5.28;;;3.40;;
26750;SDS011;14345;48.272;25.926;2023-06-24T07:27:21;5.32;;;3.67;;
26750;SDS011;14345;48.272;25.926;2023-06-24T07:29:47;6.32;;;4.07;;
26750;SDS011;14345;48.272;25.926;2023-06-24T07:32:13;7.43;;;3.50;;
26750;SDS011;14345;48.272;25.926;2023-06-24T07:34:39;4.28;;;3.42;;
26750;SDS011;14345;48.272;25.926;2023-06-24T07:37:05;7.75;;;3.60;;
26750;SDS011;14345;48.272;25.926;2023-06-24T07:39:31;5.78;;;3.33;;
26750;SDS011;14345;48.272;25.926;2023-06-24T07:41:57;9.18;;;3.97;;
26750;SDS011;14345;48.272;25.926;2023-06-24T07:44:23;5.63;;;3.33;;
26750;SDS011;14345;48.272;25.926;2023-06-24T07:46:49;6.82;;;3.85;;
26750;SDS011;14345;48.272;25.926;2023-06-24T07:49:16;7.28;;;3.83;;
26750;SDS011;14345;48.272;25.926;2023-06-24T07:51:42;7.78;;;3.70;;
26750;SDS011;14345;48.272;25.926;2023-06-24T07:54:10;9.93;;;6.05;;
26750;SDS011;14345;48.272;25.926;2023-06-24T07:56:36;8.23;;;4.50;;
26750;SDS011;14345;48.272;25.926;2023-06-24T07:59:02;6.13;;;3.80;;
26750;SDS011;14345;48.272;25.926;2023-06-24T08:01:28;6.25;;;3.60;;
26750;SDS011;14345;48.272;25.926;2023-06-24T08:03:54;5.93;;;3.53;;
26750;SDS011;14345;48.272;25.926;2023-06-24T08:06:20;8.02;;;3.83;;
26750;SDS011;14345;48.272;25.926;2023-06-24T08:08:46;8.68;;;3.22;;
26750;SDS011;14345;48.272;25.926;2023-06-24T08:11:12;7.28;;;3.00;;
26750;SDS011;14345;48.272;25.926;2023-06-24T08:13:38;4.38;;;3.00;;
26750;SDS011;14345;48.272;25.926;2023-06-24T08:16:04;9.90;;;3.33;;
26750;SDS011;14345;48.272;25.926;2023-06-24T08:18:30;7.25;;;3.15;;
26750;SDS011;14345;48.272;25.926;2023-06-24T08:20:57;9.00;;;3.22;;
26750;SDS011;14345;48.272;25.926;2023-06-24T08:23:23;6.53;;;2.88;;
26750;SDS011;14345;48.272;25.926;2023-06-24T08:25:49;6.47;;;2.67;;
26750;SDS011;14345;48.272;25.926;2023-06-24T08:28:15;8.40;;;2.88;;
26750;SDS011;14345;48.272;25.926;2023-06-24T08:30:41;8.20;;;3.20;;
26750;SDS011;14345;48.272;25.926;2023-06-24T08:33:07;5.88;;;3.00;;
26750;SDS011;14345;48.272;25.926;2023-06-24T08:35:33;6.93;;;2.90;;
26750;SDS011;14345;48.272;25.926;2023-06-24T08:37:59;5.63;;;3.17;;
26750;SDS011;14345;48.272;25.926;2023-06-24T08:40:25;11.15;;;3.88;;
26750;SDS011;14345;48.272;25.926;2023-06-24T08:42:51;7.57;;;3.53;;
26750;SDS011;14345;48.272;25.926;2023-06-24T08:45:19;7.05;;;3.20;;
26750;SDS011;14345;48.272;25.926;2023-06-24T08:47:46;4.75;;;3.13;;
26750;SDS011;14345;48.272;25.926;2023-06-24T08:50:13;6.45;;;3.03;;
26750;SDS011;14345;48.272;25.926;2023-06-24T08:52:41;4.05;;;2.60;;
26750;SDS011;14345;48.272;25.926;2023-06-24T08:55:08;8.25;;;2.33;;
26750;SDS011;14345;48.272;25.926;2023-06-24T08:57:36;6.05;;;2.40;;
26750;SDS011;14345;48.272;25.926;2023-06-24T09:00:02;4.93;;;2.58;;
26750;SDS011;14345;48.272;25.926;2023-06-24T09:02:29;6.78;;;2.50;;
26750;SDS011;14345;48.272;25.926;2023-06-24T09:04:57;5.53;;;2.63;;
26750;SDS011;14345;48.272;25.926;2023-06-24T09:07:26;4.90;;;2.53;;
26750;SDS011;14345;48.272;25.926;2023-06-24T09:09:56;5.18;;;2.35;;
26750;SDS011;14345;48.272;25.926;2023-06-24T09:12:23;3.60;;;2.38;;
26750;SDS011;14345;48.272;25.926;2023-06-24T09:14:49;11.90;;;3.13;;
26750;SDS011;14345;48.272;25.926;2023-06-24T09:17:16;9.07;;;2.85;;
26750;SDS011;14345;48.272;25.926;2023-06-24T09:19:42;5.10;;;2.30;;
26750;SDS011;14345;48.272;25.926;2023-06-24T09:22:09;4.93;;;2.42;;
26750;SDS011;14345;48.272;25.926;2023-06-24T09:27:11;8.40;;;2.85;;
26750;SDS011;14345;48.272;25.926;2023-06-24T09:29:38;6.32;;;2.65;;
26750;SDS011;14345;48.272;25.926;2023-06-24T09:32:04;4.97;;;2.47;;
26750;SDS011;14345;48.272;25.926;2023-06-24T09:34:31;6.10;;;2.42;;
26750;SDS011;14345;48.272;25.926;2023-06-24T09:36:57;5.15;;;2.47;;
26750;SDS011;14345;48.272;25.926;2023-06-24T09:39:24;6.72;;;2.50;;
26750;SDS011;14345;48.272;25.926;2023-06-24T09:41:54;3.67;;;1.98;;
26750;SDS011;14345;48.272;25.926;2023-06-24T09:44:20;6.00;;;2.00;;
26750;SDS011;14345;48.272;25.926;2023-06-24T09:46:46;6.50;;;2.10;;
26750;SDS011;14345;48.272;25.926;2023-06-24T09:49:13;6.75;;;2.35;;
26750;SDS011;14345;48.272;25.926;2023-06-24T09:51:42;5.57;;;1.98;;
26750;SDS011;14345;48.272;25.926;2023-06-24T09:54:09;4.43;;;1.90;;
26750;SDS011;14345;48.272;25.926;2023-06-24T09:56:36;4.10;;;1.73;;
26750;SDS011;14345;48.272;25.926;2023-06-24T09:59:05;4.80;;;2.30;;
26750;SDS011;14345;48.272;25.926;2023-06-24T10:01:32;5.97;;;2.20;;
26750;SDS011;14345;48.272;25.926;2023-06-24T10:03:58;3.25;;;1.88;;
26750;SDS011;14345;48.272;25.926;2023-06-24T10:06:25;5.15;;;2.20;;
26750;SDS011;14345;48.272;25.926;2023-06-24T10:08:51;5.75;;;2.25;;
26750;SDS011;14345;48.272;25.926;2023-06-24T10:11:18;5.88;;;2.45;;
26750;SDS011;14345;48.272;25.926;2023-06-24T10:13:44;4.43;;;2.25;;
26750;SDS011;14345;48.272;25.926;2023-06-24T10:16:10;4.65;;;1.98;;
26750;SDS011;14345;48.272;25.926;2023-06-24T10:18:36;6.75;;;2.10;;
26750;SDS011;14345;48.272;25.926;2023-06-24T10:21:04;8.98;;;2.53;;
26750;SDS011;14345;48.272;25.926;2023-06-24T10:23:51;4.20;;;2.10;;
26750;SDS011;14345;48.272;25.926;2023-06-24T10:26:27;3.35;;;1.88;;
26750;SDS011;14345;48.272;25.926;2023-06-24T10:31:50;3.92;;;1.60;;
26750;SDS011;14345;48.272;25.926;2023-06-24T10:44:56;5.30;;;2.40;;
26750;SDS011;14345;48.272;25.926;2023-06-24T10:47:22;6.53;;;2.78;;
26750;SDS011;14345;48.272;25.926;2023-06-24T10:49:49;5.90;;;2.47;;
26750;SDS011;14345;48.272;25.926;2023-06-24T10:52:16;5.70;;;2.58;;
26750;SDS011;14345;48.272;25.926;2023-06-24T10:54:44;8.20;;;3.25;;
26750;SDS011;14345;48.272;25.926;2023-06-24T10:57:10;3.92;;;2.50;;
26750;SDS011;14345;48.272;25.926;2023-06-24T10:59:40;5.20;;;2.78;;
26750;SDS011;14345;48.272;25.926;2023-06-24T11:02:09;4.15;;;2.42;;
26750;SDS011;14345;48.272;25.926;2023-06-24T11:04:45;5.18;;;2.22;;
26750;SDS011;14345;48.272;25.926;2023-06-24T11:07:11;4.20;;;2.20;;
26750;SDS011;14345;48.272;25.926;2023-06-24T11:09:37;4.68;;;2.60;;
26750;SDS011;14345;48.272;25.926;2023-06-24T11:12:04;5.85;;;3.25;;
26750;SDS011;14345;48.272;25.926;2023-06-24T11:14:30;5.22;;;3.00;;
26750;SDS011;14345;48.272;25.926;2023-06-24T11:17:00;3.85;;;2.20;;
26750;SDS011;14345;48.272;25.926;2023-06-24T11:19:26;9.15;;;2.58;;
26750;SDS011;14345;48.272;25.926;2023-06-24T11:21:52;5.05;;;2.50;;
26750;SDS011;14345;48.272;25.926;2023-06-24T11:24:18;6.10;;;2.72;;
26750;SDS011;14345;48.272;25.926;2023-06-24T11:26:45;9.85;;;2.60;;
26750;SDS011;14345;48.272;25.926;2023-06-24T11:29:11;5.00;;;2.40;;
26750;SDS011;14345;48.272;25.926;2023-06-24T11:31:37;11.00;;;3.80;;
26750;SDS011;14345;48.272;25.926;2023-06-24T11:34:03;5.07;;;2.75;;
26750;SDS011;14345;48.272;25.926;2023-06-24T11:36:29;6.80;;;2.97;;
26750;SDS011;14345;48.272;25.926;2023-06-24T11:38:56;5.70;;;2.72;;
26750;SDS011;14345;48.272;25.926;2023-06-24T11:41:22;11.07;;;4.40;;
26750;SDS011;14345;48.272;25.926;2023-06-24T11:43:50;9.82;;;4.25;;
26750;SDS011;14345;48.272;25.926;2023-06-24T11:46:20;8.20;;;4.07;;
26750;SDS011;14345;48.272;25.926;2023-06-24T11:48:46;11.23;;;4.47;;
26750;SDS011;14345;48.272;25.926;2023-06-24T11:51:13;8.85;;;3.80;;
26750;SDS011;14345;48.272;25.926;2023-06-24T11:53:42;6.95;;;3.88;;
26750;SDS011;14345;48.272;25.926;2023-06-24T11:56:08;6.80;;;4.00;;
26750;SDS011;14345;48.272;25.926;2023-06-24T11:58:34;15.15;;;4.40;;
26750;SDS011;14345;48.272;25.926;2023-06-24T12:01:01;7.97;;;4.35;;
26750;SDS011;14345;48.272;25.926;2023-06-24T12:03:28;7.03;;;4.95;;
26750;SDS011;14345;48.272;25.926;2023-06-24T12:05:54;8.77;;;4.20;;
26750;SDS011;14345;48.272;25.926;2023-06-24T12:08:20;7.13;;;4.43;;
26750;SDS011;14345;48.272;25.926;2023-06-24T12:10:47;6.30;;;4.30;;
26750;SDS011;14345;48.272;25.926;2023-06-24T12:13:14;7.35;;;4.93;;
26750;SDS011;14345;48.272;25.926;2023-06-24T12:15:40;9.43;;;5.45;;
26750;SDS011;14345;48.272;25.926;2023-06-24T12:18:06;6.88;;;4.32;;
26750;SDS011;14345;48.272;25.926;2023-06-24T12:20:32;6.93;;;3.72;;
26750;SDS011;14345;48.272;25.926;2023-06-24T12:23:00;4.38;;;3.42;;
26750;SDS011;14345;48.272;25.926;2023-06-24T12:25:26;5.40;;;3.30;;
26750;SDS011;14345;48.272;25.926;2023-06-24T12:27:52;5.63;;;3.38;;
26750;SDS011;14345;48.272;25.926;2023-06-24T12:30:18;5.13;;;3.28;;
26750;SDS011;14345;48.272;25.926;2023-06-24T12:32:46;6.63;;;3.50;;
26750;SDS011;14345;48.272;25.926;2023-06-24T12:35:12;4.68;;;3.33;;
26750;SDS011;14345;48.272;25.926;2023-06-24T12:37:38;5.85;;;3.40;;
26750;SDS011;14345;48.272;25.926;2023-06-24T12:40:04;4.15;;;2.70;;
26750;SDS011;14345;48.272;25.926;2023-06-24T12:42:30;7.65;;;3.42;;
26750;SDS011;14345;48.272;25.926;2023-06-24T12:44:56;7.47;;;3.40;;
26750;SDS011;14345;48.272;25.926;2023-06-24T12:47:22;6.85;;;3.35;;
26750;SDS011;14345;48.272;25.926;2023-06-24T12:49:49;4.30;;;3.05;;
26750;SDS011;14345;48.272;25.926;2023-06-24T12:52:15;6.78;;;3.38;;
26750;SDS011;14345;48.272;25.926;2023-06-24T12:54:41;4.25;;;3.20;;
26750;SDS011;14345;48.272;25.926;2023-06-24T12:57:07;5.95;;;3.30;;
26750;SDS011;14345;48.272;25.926;2023-06-24T12:59:33;3.80;;;2.88;;
26750;SDS011;14345;48.272;25.926;2023-06-24T13:01:59;3.60;;;2.50;;
26750;SDS011;14345;48.272;25.926;2023-06-24T13:04:25;4.97;;;3.40;;
26750;SDS011;14345;48.272;25.926;2023-06-24T13:06:52;4.53;;;2.55;;
26750;SDS011;14345;48.272;25.926;2023-06-24T13:09:18;5.28;;;3.00;;
26750;SDS011;14345;48.272;25.926;2023-06-24T13:11:44;5.38;;;3.00;;
26750;SDS011;14345;48.272;25.926;2023-06-24T13:14:10;4.78;;;2.65;;
26750;SDS011;14345;48.272;25.926;2023-06-24T13:16:36;3.33;;;2.80;;
26750;SDS011;14345;48.272;25.926;2023-06-24T13:19:02;7.03;;;3.40;;
26750;SDS011;14345;48.272;25.926;2023-06-24T13:21:28;4.82;;;2.80;;
26750;SDS011;14345;48.272;25.926;2023-06-24T13:23:54;3.88;;;3.20;;
26750;SDS011;14345;48.272;25.926;2023-06-24T13:26:20;6.05;;;3.20;;
26750;SDS011;14345;48.272;25.926;2023-06-24T13:28:46;5.97;;;3.08;;
26750;SDS011;14345;48.272;25.926;2023-06-24T13:31:14;5.70;;;3.35;;
26750;SDS011;14345;48.272;25.926;2023-06-24T13:33:40;6.75;;;3.38;;
26750;SDS011;14345;48.272;25.926;2023-06-24T13:36:07;6.00;;;3.40;;
26750;SDS011;14345;48.272;25.926;2023-06-24T13:38:33;5.65;;;3.45;;
26750;SDS011;14345;48.272;25.926;2023-06-24T13:40:59;8.32;;;3.95;;
26750;SDS011;14345;48.272;25.926;2023-06-24T13:43:25;4.90;;;3.38;;
26750;SDS011;14345;48.272;25.926;2023-06-24T13:45:51;4.40;;;2.67;;
26750;SDS011;14345;48.272;25.926;2023-06-24T13:48:17;5.65;;;3.35;;
26750;SDS011;14345;48.272;25.926;2023-06-24T13:50:44;6.40;;;3.42;;
26750;SDS011;14345;48.272;25.926;2023-06-24T13:53:10;5.68;;;3.42;;
26750;SDS011;14345;48.272;25.926;2023-06-24T13:55:36;6.03;;;3.60;;
26750;SDS011;14345;48.272;25.926;2023-06-24T13:58:02;6.43;;;3.35;;
26750;SDS011;14345;48.272;25.926;2023-06-24T14:00:28;6.93;;;3.60;;
26750;SDS011;14345;48.272;25.926;2023-06-24T14:02:54;5.15;;;3.80;;
26750;SDS011;14345;48.272;25.926;2023-06-24T14:05:20;4.50;;;3.30;;
26750;SDS011;14345;48.272;25.926;2023-06-24T14:07:46;4.47;;;3.22;;
26750;SDS011;14345;48.272;25.926;2023-06-24T14:10:12;6.38;;;3.58;;
26750;SDS011;14345;48.272;25.926;2023-06-24T14:12:38;4.93;;;3.35;;
26750;SDS011;14345;48.272;25.926;2023-06-24T14:15:07;4.38;;;3.17;;
26750;SDS011;14345;48.272;25.926;2023-06-24T14:17:33;4.78;;;3.03;;
26750;SDS011;14345;48.272;25.926;2023-06-24T14:19:59;5.72;;;3.78;;
26750;SDS011;14345;48.272;25.926;2023-06-24T14:22:25;12.52;;;3.40;;
26750;SDS011;14345;48.272;25.926;2023-06-24T14:24:51;7.70;;;3.45;;
26750;SDS011;14345;48.272;25.926;2023-06-24T14:27:17;5.82;;;3.40;;
26750;SDS011;14345;48.272;25.926;2023-06-24T14:29:43;5.88;;;3.45;;
26750;SDS011;14345;48.272;25.926;2023-06-24T14:32:09;6.22;;;3.65;;
26750;SDS011;14345;48.272;25.926;2023-06-24T14:34:35;5.32;;;3.90;;
26750;SDS011;14345;48.272;25.926;2023-06-24T14:37:01;7.72;;;3.90;;
26750;SDS011;14345;48.272;25.926;2023-06-24T14:39:27;5.60;;;3.53;;
26750;SDS011;14345;48.272;25.926;2023-06-24T14:41:53;5.07;;;3.60;;
26750;SDS011;14345;48.272;25.926;2023-06-24T14:44:19;10.60;;;6.03;;
26750;SDS011;14345;48.272;25.926;2023-06-24T14:46:45;7.00;;;4.50;;
26750;SDS011;14345;48.272;25.926;2023-06-24T14:49:11;5.45;;;4.05;;
26750;SDS011;14345;48.272;25.926;2023-06-24T14:51:37;4.60;;;4.00;;
26750;SDS011;14345;48.272;25.926;2023-06-24T14:54:03;8.18;;;3.72;;
26750;SDS011;14345;48.272;25.926;2023-06-24T14:56:29;7.95;;;4.25;;
26750;SDS011;14345;48.272;25.926;2023-06-24T14:58:56;7.68;;;3.95;;